Harrison, ID

2:07 PM PDT on August 30, 2014 (GMT -0700)
KIDWORLE2 | Change Station
CLOSE
Current Station
Personal Weather Station
Location: Worley, ID
Elevation: 2657 ft
Nearby Weather Stations

Elev 2657 ft 47.44 °N, 116.90 °W | Updated 59 seconds ago

Mostly Cloudy
Mostly Cloudy
71.6 °F
Feels Like 77 °F
N
15.0
Wind Variable Wind from SW
Gusts 18.0 mph

Today
High -- | Low -- °F
--% Chance of Precip.
Yesterday
High -- | Low -- °F
Precip. -- in
6:03 AM 7:31 PM
Waxing Crescent, 24% visible
Pressure 29.85 in
Visibility 10.0 miles
Clouds Scattered Clouds 8500 ft
Heat Index 77 °F
Dew Point 46 °F
Humidity 40%
Rainfall 0.00 in
Snow Depth Not available.
UV 6 out of 12
Pollen 7.40 out of 12
Air Quality Not available.
Flu Activity Not available.
METAR KCOE 302055Z AUTO 23011G17KT 10SM SCT085 22/06 A2985 RMK AO1 57014

More Conditions Fewer Conditions

Pressure 29.85 in
Visibility 10.0 miles
Clouds Scattered Clouds 8500 ft
Heat Index 77 °F
Dew Point 46 °F
Humidity 40%
Rainfall 0.00 in
Snow Depth Not available.
UV 6 out of 12
Pollen 7.40 out of 12
Air Quality Not available.
Flu Activity Not available.
METAR KCOE 302055Z AUTO 23011G17KT 10SM SCT085 22/06 A2985 RMK AO1 57014

More Conditions Fewer Conditions

10-Day Weather Forecast

Almanac

Astronomy

Aug. 30, 2014 Rise Set
Actual Time 6:03 AM PDT 7:31 PM PDT
Civil Twilight 5:31 AM PDT 8:02 PM PDT
Nautical Twilight 4:52 AM PDT 8:41 PM PDT
Astronomical Twilight 4:10 AM PDT 9:23 PM PDT
Moon 11:17 AM PDT 9:44 PM PDT
Length of Visible Light 14h 31m
Length of Day
13h 27m
Tomorrow will be 3m 17s shorter.
Waxing Crescent, 24% of the Moon is Illuminated
Today
Waxing Crescent
Sep 2
First Quarter
Sep 8
Full
Sep 15
Last Quarter
Sep 24
New

Today's Extremes

State Highs State Lows

Community

WunderPhotos

Upload Photos

1,748,627 photos uploaded!

WunderBlogs® & News

Nearby

Snow Depth

Station Depth Elevation
Mica Creek 0 in 4750 ft
Sherwin 0 in 3200 ft
Sunset 0 in 5540 ft
Moscow Mountain 0 in 4700 ft
Lost Lake 0 in 6110 ft

Earthquake Activity

City Distance Mag. Time & Date
No recent earthquake activity has been reported nearby.
Minimum magnitude displayed is 2.5.

Coastal Water Temperatures

Place Temperature
No Stations Reporting

Nearby Weather Stations